Time;durP1;ratioP1;P1;durP2;ratioP2;P2;SDS_P1;SDS_P2;PMS_P1;PMS_P2;Temp;Humidity;BMP_temperature;BMP_pressure;BME280_temperature;BME280_humidity;BME280_pressure;Samples;Min_cycle;Max_cycle;Signal;HPM_P1;HPM_P2
2024/02/18 00:34:30;;;;;;;10.27;2.40;;;;;10.30;102612.00;;;;12191184;23;20195;31
2024/02/18 00:39:40;;;;;;;5.50;2.00;;;;;10.40;102597.00;;;;11169487;24;20256;31
2024/02/18 00:45:15;;;;;;;4.17;1.90;;;;;10.40;102597.00;;;;11283887;24;20204;31
2024/02/18 00:56:47;;;;;;;4.10;1.60;;;;;10.40;102592.00;;;;6520684;23;20420;-88
2024/02/18 01:01:48;;;;;;;8.63;2.07;;;;;10.40;102586.00;;;;9942694;29;20234;-81
2024/02/18 01:06:50;;;;;;;7.30;2.40;;;;;10.40;102584.00;;;;9963177;29;20218;-81
2024/02/18 01:11:51;;;;;;;9.70;2.13;;;;;10.40;102580.00;;;;9948762;29;20257;-80
2024/02/18 01:16:52;;;;;;;8.10;2.40;;;;;10.40;102576.00;;;;9954339;29;20835;-81
2024/02/18 01:21:54;;;;;;;5.87;2.00;;;;;10.40;102573.00;;;;9948059;29;20226;-81
2024/02/18 01:26:55;;;;;;;6.47;2.50;;;;;10.40;102561.00;;;;9945466;29;20236;-81
2024/02/18 01:31:56;;;;;;;4.87;1.93;;;;;10.40;102555.00;;;;9976451;29;20633;-80
2024/02/18 01:36:57;;;;;;;8.23;2.40;;;;;10.50;102555.00;;;;9978244;29;21200;-81
2024/02/18 01:41:58;;;;;;;11.50;2.77;;;;;10.40;102555.00;;;;9953881;29;20238;-81
2024/02/18 01:47:00;;;;;;;5.80;2.30;;;;;10.40;102548.00;;;;9948219;29;20233;-82
2024/02/18 01:52:02;;;;;;;7.27;2.10;;;;;10.40;102537.00;;;;9998416;29;20219;-83
2024/02/18 01:57:06;;;;;;;11.07;2.60;;;;;10.40;102540.00;;;;10008076;29;20253;-82
2024/02/18 03:16:21;;;;;;;5.53;2.57;;;;;10.10;102471.00;;;;11387045;24;20229;-80
2024/02/18 03:21:23;;;;;;;7.67;3.13;;;;;10.10;102478.00;;;;9909036;29;20231;-80
2024/02/18 03:26:25;;;;;;;8.50;2.40;;;;;10.10;102464.00;;;;9923586;29;20231;-81
2024/02/18 03:31:27;;;;;;;6.83;2.47;;;;;10.10;102460.00;;;;9900646;29;20313;-79
2024/02/18 03:36:28;;;;;;;10.07;3.60;;;;;10.00;102452.00;;;;9925229;29;20322;-80
2024/02/18 03:41:29;;;;;;;7.37;3.07;;;;;10.00;102445.00;;;;9922580;29;20308;-81
2024/02/18 03:46:30;;;;;;;7.10;2.57;;;;;10.00;102432.00;;;;9944043;29;20226;-80
2024/02/18 03:51:31;;;;;;;7.60;2.53;;;;;9.90;102425.00;;;;9914493;29;20229;-80
2024/02/18 03:56:34;;;;;;;10.00;2.47;;;;;10.00;102414.00;;;;9924862;29;20321;-80
2024/02/18 04:01:35;;;;;;;6.63;2.40;;;;;10.00;102404.00;;;;9910940;29;20323;-82
2024/02/18 04:06:37;;;;;;;5.67;1.70;;;;;10.00;102403.00;;;;9913838;29;20252;-81
2024/02/18 04:11:38;;;;;;;9.43;2.20;;;;;10.00;102386.00;;;;9919088;29;20234;-83
2024/02/18 04:16:39;;;;;;;6.97;2.30;;;;;10.00;102381.00;;;;9922651;29;20892;-80
2024/02/18 04:21:41;;;;;;;7.73;2.40;;;;;10.00;102374.00;;;;9929892;29;20258;-82
2024/02/18 04:26:42;;;;;;;9.77;2.10;;;;;10.00;102367.00;;;;9930045;29;20226;-81
2024/02/18 04:31:43;;;;;;;5.87;2.00;;;;;10.00;102361.00;;;;9926034;29;20253;-81
2024/02/18 04:36:47;;;;;;;6.63;2.17;;;;;10.00;102350.00;;;;9917810;29;20261;-81
2024/02/18 04:41:49;;;;;;;5.93;2.00;;;;;10.00;102349.00;;;;9924296;29;20278;-79
2024/02/18 04:46:50;;;;;;;5.57;1.77;;;;;10.00;102340.00;;;;9909605;29;20309;-80
2024/02/18 04:51:51;;;;;;;2.80;1.33;;;;;10.00;102339.00;;;;9905949;29;20589;-80
2024/02/18 04:56:52;;;;;;;9.27;1.73;;;;;10.10;102329.00;;;;9925855;29;20234;-81
2024/02/18 05:01:53;;;;;;;4.97;1.53;;;;;10.10;102327.00;;;;9905634;29;20313;-82
2024/02/18 05:06:55;;;;;;;5.30;2.20;;;;;10.10;102324.00;;;;9922951;29;20321;-80
2024/02/18 05:11:56;;;;;;;8.23;1.90;;;;;10.20;102307.00;;;;9909897;29;20232;-81
2024/02/18 05:16:59;;;;;;;9.00;1.83;;;;;10.10;102301.00;;;;9904645;29;20271;-83
2024/02/18 05:22:01;;;;;;;8.77;2.07;;;;;10.10;102294.00;;;;9928196;29;20349;-81
2024/02/18 05:27:03;;;;;;;6.33;1.97;;;;;10.10;102295.00;;;;9909597;29;20233;-80
2024/02/18 05:32:04;;;;;;;9.13;2.10;;;;;10.20;102283.00;;;;9920102;29;20236;-82
2024/02/18 05:37:05;;;;;;;8.23;1.90;;;;;10.10;102274.00;;;;9916404;29;20340;-80
2024/02/18 05:42:07;;;;;;;4.27;1.57;;;;;10.10;102274.00;;;;9908914;29;20230;-79
2024/02/18 05:47:08;;;;;;;9.73;2.60;;;;;10.10;102270.00;;;;9904520;29;20309;-80
2024/02/18 05:52:10;;;;;;;16.10;2.07;;;;;10.00;102267.00;;;;9910097;29;20807;-80
2024/02/18 05:57:12;;;;;;;11.80;2.00;;;;;9.80;102263.00;;;;9891589;29;20235;-81
2024/02/18 06:02:13;;;;;;;8.67;1.90;;;;;9.70;102256.00;;;;9920657;29;20310;-80
2024/02/18 06:07:14;;;;;;;5.47;2.00;;;;;9.50;102247.00;;;;9923522;29;20230;-80
2024/02/18 06:12:16;;;;;;;7.23;2.20;;;;;9.30;102245.00;;;;9909198;29;20292;-80
2024/02/18 06:17:18;;;;;;;4.23;1.80;;;;;9.20;102247.00;;;;9909924;29;20346;-80
2024/02/18 06:22:19;;;;;;;7.20;2.20;;;;;9.10;102232.00;;;;9938126;29;20317;-80
2024/02/18 06:27:20;;;;;;;4.83;1.97;;;;;8.90;102226.00;;;;9925166;29;20227;-79
2024/02/18 06:32:21;;;;;;;8.10;2.50;;;;;8.70;102238.00;;;;9944535;29;20222;-79
2024/02/18 06:37:22;;;;;;;10.07;2.93;;;;;8.60;102227.00;;;;9932130;29;20233;-78
2024/02/18 06:42:23;;;;;;;7.33;2.53;;;;;8.50;102215.00;;;;9933378;29;20261;-80
2024/02/18 06:47:25;;;;;;;8.50;2.77;;;;;8.50;102207.00;;;;9931410;29;20237;-84
2024/02/18 06:52:26;;;;;;;6.13;2.17;;;;;8.40;102202.00;;;;9925958;29;20231;-83
2024/02/18 06:57:27;;;;;;;6.60;2.40;;;;;8.40;102199.00;;;;9923312;29;20248;-84
2024/02/18 07:02:28;;;;;;;8.40;3.10;;;;;8.30;102186.00;;;;9925326;29;20822;-84
2024/02/18 07:07:30;;;;;;;9.00;2.47;;;;;8.30;102185.00;;;;9927521;29;20222;-84
2024/02/18 07:12:32;;;;;;;4.37;2.27;;;;;8.20;102170.00;;;;9926989;29;20235;-84
2024/02/18 07:17:33;;;;;;;9.87;3.17;;;;;8.20;102159.00;;;;9921631;29;20253;-84
2024/02/18 07:22:34;;;;;;;8.37;2.30;;;;;8.20;102157.00;;;;9932394;29;20271;-84
2024/02/18 07:27:35;;;;;;;3.83;2.60;;;;;8.20;102148.00;;;;9943491;29;20214;-85
2024/02/18 07:32:36;;;;;;;9.13;3.07;;;;;8.20;102137.00;;;;9911003;29;20241;-85
2024/02/18 07:37:38;;;;;;;11.87;2.97;;;;;8.20;102116.00;;;;9938925;29;20233;-85
2024/02/18 07:42:39;;;;;;;10.50;3.10;;;;;8.20;102114.00;;;;9906164;29;20226;-86
2024/02/18 07:47:41;;;;;;;10.97;2.90;;;;;8.20;102098.00;;;;9923450;29;20754;-86
2024/02/18 07:52:42;;;;;;;7.90;3.63;;;;;8.30;102100.00;;;;9912124;29;20223;-86
2024/02/18 07:57:43;;;;;;;5.60;2.57;;;;;8.30;102092.00;;;;9926086;29;20303;-79
2024/02/18 08:02:44;;;;;;;8.97;3.07;;;;;8.30;102077.00;;;;9923786;29;20223;-78
2024/02/18 08:07:46;;;;;;;8.80;2.77;;;;;8.30;102072.00;;;;9910386;29;20704;-79
2024/02/18 08:12:47;;;;;;;8.13;2.97;;;;;8.40;102071.00;;;;9930259;29;20297;-81
2024/02/18 08:17:51;;;;;;;14.50;3.10;;;;;8.50;102078.00;;;;9929259;29;20249;-77
2024/02/18 08:22:52;;;;;;;11.40;3.40;;;;;8.50;102066.00;;;;9912134;29;20267;-77
2024/02/18 08:27:53;;;;;;;13.13;2.90;;;;;8.60;102058.00;;;;9925028;29;20326;-76
2024/02/18 08:32:55;;;;;;;7.90;2.73;;;;;8.60;102049.00;;;;9920533;29;20663;-76
2024/02/18 08:37:56;;;;;;;9.43;3.03;;;;;8.70;102051.00;;;;9924281;29;20236;-78
2024/02/18 08:42:57;;;;;;;7.57;3.17;;;;;8.80;102047.00;;;;9916856;29;21007;-76
2024/02/18 08:47:59;;;;;;;10.20;2.83;;;;;8.80;102024.00;;;;9915512;29;20226;-78
2024/02/18 08:53:02;;;;;;;4.33;1.57;;;;;8.80;102017.00;;;;9899292;29;20217;-77
2024/02/18 08:58:03;;;;;;;7.43;2.50;;;;;8.80;101997.00;;;;9929192;29;20317;-77
2024/02/18 09:03:04;;;;;;;5.30;2.20;;;;;8.80;102005.00;;;;9936245;29;20222;-76
2024/02/18 09:08:07;;;;;;;8.60;2.67;;;;;8.90;101993.00;;;;9906787;29;20249;-80
2024/02/18 09:13:08;;;;;;;8.23;2.90;;;;;9.20;101986.00;;;;9918038;29;20806;-80
2024/02/18 09:18:09;;;;;;;6.20;2.10;;;;;9.60;101987.00;;;;9899168;29;20902;-80
2024/02/18 09:23:11;;;;;;;7.20;2.63;;;;;10.20;101980.00;;;;9934010;29;20921;-80
2024/02/18 09:28:14;;;;;;;7.00;2.70;;;;;10.80;101971.00;;;;9924975;29;20256;-81
2024/02/18 09:33:15;;;;;;;5.90;1.87;;;;;10.90;101974.00;;;;9915105;29;20233;-79
2024/02/18 09:38:16;;;;;;;6.37;1.90;;;;;11.00;101969.00;;;;9918323;29;20237;-79
2024/02/18 09:43:19;;;;;;;3.77;1.97;;;;;10.90;101948.00;;;;9909133;29;20234;-80
2024/02/18 09:48:24;;;;;;;3.43;1.97;;;;;11.00;101936.00;;;;9912176;29;20275;-79
2024/02/18 09:53:26;;;;;;;3.37;1.90;;;;;11.00;101942.00;;;;9935385;29;20577;-80
2024/02/18 09:58:27;;;;;;;3.07;1.70;;;;;10.90;101945.00;;;;9931501;29;20605;-80
2024/02/18 10:03:28;;;;;;;8.27;2.23;;;;;10.90;101946.00;;;;9925641;29;20996;-79
2024/02/18 10:08:40;;;;;;;8.20;2.07;;;;;11.00;101955.00;;;;9948806;29;20803;-80
2024/02/18 10:13:41;;;;;;;7.70;2.00;;;;;11.10;101956.00;;;;9947366;29;21719;-79
2024/02/18 10:18:46;;;;;;;7.40;2.00;;;;;11.20;101928.00;;;;9922732;29;20239;-80
2024/02/18 10:23:49;;;;;;;6.17;1.80;;;;;11.30;101918.00;;;;9925598;29;20398;-81
2024/02/18 10:28:52;;;;;;;5.03;2.10;;;;;11.30;101908.00;;;;9927798;29;20690;-81
2024/02/18 10:33:53;;;;;;;6.90;1.93;;;;;11.10;101900.00;;;;9916796;29;20666;-82
2024/02/18 10:38:58;;;;;;;4.47;2.00;;;;;11.10;101892.00;;;;9911390;29;20291;-79
2024/02/18 10:44:01;;;;;;;2.80;1.30;;;;;11.00;101888.00;;;;9925642;29;20832;-81
2024/02/18 10:49:14;;;;;;;5.37;1.43;;;;;10.90;101871.00;;;;9927187;29;20214;-81
2024/02/18 10:54:32;;;;;;;4.70;1.47;;;;;10.80;101863.00;;;;9911566;29;20298;-79
2024/02/18 10:59:56;;;;;;;5.50;1.80;;;;;10.80;101863.00;;;;9928054;29;20293;-80
2024/02/18 11:04:58;;;;;;;5.07;1.70;;;;;10.70;101843.00;;;;9937762;29;20238;-79
2024/02/18 11:10:00;;;;;;;2.73;1.47;;;;;10.50;101841.00;;;;9928497;29;20253;-80
2024/02/18 11:15:06;;;;;;;6.53;1.63;;;;;10.30;101816.00;;;;9898576;29;20293;-80
2024/02/18 11:20:09;;;;;;;5.03;2.13;;;;;10.10;101813.00;;;;9914982;29;20257;-80
2024/02/18 11:25:12;;;;;;;3.70;1.63;;;;;9.80;101807.00;;;;9927548;29;20218;-83
2024/02/18 11:30:14;;;;;;;6.67;1.57;;;;;9.70;101772.00;;;;9946689;29;20244;-82
2024/02/18 11:35:19;;;;;;;6.93;1.50;;;;;9.80;101747.00;;;;9915557;29;20329;-83
2024/02/18 11:40:20;;;;;;;6.30;1.70;;;;;10.00;101708.00;;;;9927264;29;20249;-82
2024/02/18 11:45:24;;;;;;;3.33;1.20;;;;;10.20;101712.00;;;;9914367;29;20230;-82
2024/02/18 11:50:25;;;;;;;3.07;1.50;;;;;10.60;101718.00;;;;9917693;29;20233;-83
2024/02/18 11:55:26;;;;;;;5.63;1.87;;;;;10.50;101753.00;;;;9926130;29;20251;-83
2024/02/18 12:00:27;;;;;;;4.93;2.00;;;;;10.30;101728.00;;;;9928239;29;20309;-83
2024/02/18 12:05:30;;;;;;;4.07;2.00;;;;;10.30;101715.00;;;;9913873;29;20252;-83
2024/02/18 12:10:33;;;;;;;4.53;1.73;;;;;10.40;101738.00;;;;9916984;29;20287;-83
2024/02/18 12:15:34;;;;;;;4.70;1.80;;;;;10.20;101730.00;;;;9916793;29;20237;-82
2024/02/18 12:20:35;;;;;;;3.10;1.83;;;;;10.10;101726.00;;;;9910149;29;20234;-83
2024/02/18 12:25:37;;;;;;;8.63;2.00;;;;;10.00;101730.00;;;;9914046;29;20314;-86
2024/02/18 12:30:38;;;;;;;6.03;2.57;;;;;10.00;101723.00;;;;9921555;29;20228;-83
2024/02/18 12:35:39;;;;;;;7.50;2.53;;;;;10.10;101704.00;;;;9932185;29;20693;-83
2024/02/18 12:40:41;;;;;;;5.63;2.57;;;;;10.20;101688.00;;;;9909550;29;20258;-83
2024/02/18 12:45:42;;;;;;;5.10;2.40;;;;;10.20;101690.00;;;;9902962;29;20226;-83
2024/02/18 12:51:27;;;;;;;4.40;2.40;;;;;10.20;101679.00;;;;9924267;29;20801;-82
2024/02/18 12:56:30;;;;;;;6.27;2.50;;;;;10.20;101684.00;;;;9783876;29;20287;-83
2024/02/18 13:01:32;;;;;;;6.03;2.63;;;;;10.40;101687.00;;;;9940339;29;20263;-82
2024/02/18 13:06:33;;;;;;;5.40;2.50;;;;;10.50;101682.00;;;;9940860;29;20934;-84
2024/02/18 13:11:34;;;;;;;4.03;2.17;;;;;10.60;101662.00;;;;9926139;29;20283;-81
2024/02/18 13:16:36;;;;;;;5.47;2.23;;;;;10.60;101658.00;;;;9922497;29;20238;-81
2024/02/18 13:21:37;;;;;;;3.27;2.37;;;;;10.60;101676.00;;;;9927544;29;20237;-82
2024/02/18 13:26:38;;;;;;;2.67;2.20;;;;;10.70;101679.00;;;;9926002;29;20221;-83
2024/02/18 13:31:41;;;;;;;3.77;2.07;;;;;10.60;101677.00;;;;9914611;29;20237;-82
2024/02/18 13:36:42;;;;;;;3.60;2.40;;;;;10.60;101683.00;;;;9931292;29;20234;-81
2024/02/18 13:41:46;;;;;;;2.73;2.00;;;;;10.60;101681.00;;;;9946105;29;20229;-81
2024/02/18 13:46:47;;;;;;;5.67;2.20;;;;;10.60;101657.00;;;;9935848;29;20306;-86
2024/02/18 13:51:50;;;;;;;3.67;2.30;;;;;10.60;101681.00;;;;9933296;29;20274;-87
2024/02/18 13:56:51;;;;;;;3.73;2.17;;;;;10.80;101680.00;;;;9915269;29;20227;-86
2024/02/18 14:01:53;;;;;;;3.30;2.70;;;;;10.90;101675.00;;;;9940947;29;20660;-88
2024/02/18 14:06:54;;;;;;;3.63;2.40;;;;;10.90;101672.00;;;;9943590;29;20230;-88
2024/02/18 14:11:55;;;;;;;3.07;2.13;;;;;10.90;101682.00;;;;9932616;29;20265;-88
2024/02/18 14:16:56;;;;;;;2.97;2.50;;;;;10.90;101681.00;;;;9937154;29;20241;-86
2024/02/18 14:21:57;;;;;;;3.43;2.60;;;;;10.90;101682.00;;;;9937287;29;20226;-87
2024/02/18 14:26:59;;;;;;;4.10;2.80;;;;;11.00;101678.00;;;;9937126;29;20700;-85
2024/02/18 14:32:00;;;;;;;3.37;2.50;;;;;10.90;101682.00;;;;9955375;29;20249;-87
2024/02/18 14:37:03;;;;;;;3.37;2.37;;;;;10.80;101680.00;;;;9953402;29;20249;-87
2024/02/18 14:42:05;;;;;;;4.13;2.73;;;;;10.80;101671.00;;;;9955014;29;20266;-84
2024/02/18 14:47:06;;;;;;;3.90;3.50;;;;;10.70;101676.00;;;;9988667;29;20221;-85
2024/02/18 14:52:07;;;;;;;3.37;3.07;;;;;10.80;101677.00;;;;9950524;29;20233;-86
2024/02/18 14:57:09;;;;;;;3.33;2.60;;;;;10.80;101674.00;;;;9917389;29;20230;-86
2024/02/18 15:02:10;;;;;;;2.60;2.40;;;;;10.80;101693.00;;;;9918687;29;20223;-85
2024/02/18 15:07:11;;;;;;;4.00;3.50;;;;;10.80;101680.00;;;;9917179;29;20465;-85
2024/02/18 15:12:13;;;;;;;4.27;2.90;;;;;10.80;101682.00;;;;9919061;29;20854;-86
2024/02/18 15:17:14;;;;;;;4.87;3.70;;;;;10.80;101691.00;;;;9927748;29;20237;-86
2024/02/18 15:22:15;;;;;;;6.20;4.10;;;;;10.80;101688.00;;;;9929763;29;20299;-85
2024/02/18 15:27:16;;;;;;;6.83;4.30;;;;;10.90;101704.00;;;;9928692;29;20686;-84
2024/02/18 15:32:17;;;;;;;5.67;4.40;;;;;11.00;101709.00;;;;9904600;29;20233;-84
2024/02/18 15:37:19;;;;;;;8.40;4.93;;;;;11.00;101714.00;;;;9909285;29;20237;-85
2024/02/18 15:42:20;;;;;;;6.87;5.10;;;;;11.00;101711.00;;;;9918609;29;20234;-85
2024/02/18 15:47:21;;;;;;;5.10;4.60;;;;;10.90;101714.00;;;;9903189;29;20260;-84
2024/02/18 15:52:24;;;;;;;6.03;4.43;;;;;10.90;101723.00;;;;9923094;29;20313;-84
2024/02/18 15:57:25;;;;;;;5.97;4.97;;;;;10.90;101720.00;;;;9911371;29;20534;-84
2024/02/18 16:02:27;;;;;;;5.77;4.63;;;;;11.00;101727.00;;;;9905531;29;20325;-84
2024/02/18 16:07:28;;;;;;;7.07;5.03;;;;;11.00;101729.00;;;;9934754;29;20214;-78
2024/02/18 16:12:29;;;;;;;5.80;4.80;;;;;11.10;101742.00;;;;9919405;29;20226;-77
2024/02/18 16:17:30;;;;;;;5.07;4.57;;;;;11.30;101734.00;;;;9920327;29;20326;-78
2024/02/18 16:22:31;;;;;;;4.97;3.47;;;;;11.30;101744.00;;;;9919866;29;20237;-77
2024/02/18 16:27:32;;;;;;;6.87;3.30;;;;;11.20;101739.00;;;;9930309;29;20248;-78
2024/02/18 16:32:34;;;;;;;4.77;3.33;;;;;11.20;101756.00;;;;9913777;29;20226;-78
2024/02/18 16:37:35;;;;;;;5.20;2.17;;;;;11.20;101758.00;;;;9922327;29;21895;-77
2024/02/18 16:42:36;;;;;;;2.43;1.73;;;;;11.10;101760.00;;;;9917982;29;20233;-76
2024/02/18 16:47:37;;;;;;;3.77;1.57;;;;;10.90;101784.00;;;;9903352;29;20237;-78
2024/02/18 16:52:38;;;;;;;2.83;1.63;;;;;10.90;101784.00;;;;9922049;29;20227;-77
2024/02/18 16:57:39;;;;;;;3.47;1.87;;;;;10.80;101782.00;;;;9909935;29;20325;-79
2024/02/18 17:02:41;;;;;;;3.57;1.70;;;;;10.80;101795.00;;;;9908915;29;20230;-78
2024/02/18 17:07:46;;;;;;;2.23;1.83;;;;;10.80;101804.00;;;;9923967;29;20277;-76
2024/02/18 17:12:47;;;;;;;4.37;2.03;;;;;10.70;101817.00;;;;9915432;29;20305;-80
2024/02/18 17:17:49;;;;;;;3.07;2.00;;;;;10.60;101818.00;;;;9945751;29;20245;-79
2024/02/18 17:22:51;;;;;;;3.93;2.60;;;;;10.50;101827.00;;;;9931474;29;20845;-78
2024/02/18 17:27:52;;;;;;;3.03;2.40;;;;;10.50;101835.00;;;;9902421;29;20829;-78
2024/02/18 17:32:54;;;;;;;3.97;2.73;;;;;10.60;101843.00;;;;9931541;29;20221;-79
2024/02/18 17:37:55;;;;;;;4.07;2.80;;;;;10.60;101849.00;;;;9952742;29;20238;-79
2024/02/18 17:42:56;;;;;;;7.47;3.10;;;;;10.70;101864.00;;;;9934384;29;20306;-79
2024/02/18 17:47:58;;;;;;;7.40;3.13;;;;;10.70;101853.00;;;;9928081;29;20681;-79
2024/02/18 17:52:59;;;;;;;4.27;3.00;;;;;10.80;101854.00;;;;9923147;29;20233;-79
2024/02/18 17:58:01;;;;;;;5.53;3.10;;;;;10.80;101859.00;;;;9912168;29;20241;-79
2024/02/18 18:03:03;;;;;;;10.07;5.57;;;;;10.80;101859.00;;;;9930137;29;20577;-78
2024/02/18 18:08:05;;;;;;;7.00;5.83;;;;;10.80;101870.00;;;;9911357;29;20615;-79
2024/02/18 18:13:06;;;;;;;12.00;6.50;;;;;10.70;101875.00;;;;9914079;29;20234;-78
2024/02/18 18:18:07;;;;;;;12.83;7.53;;;;;10.70;101864.00;;;;9910312;29;20241;-79
2024/02/18 18:23:10;;;;;;;12.73;9.03;;;;;10.80;101877.00;;;;9941804;29;20704;-80
2024/02/18 18:28:11;;;;;;;10.20;8.23;;;;;10.80;101877.00;;;;9922283;29;20226;-88
2024/02/18 18:33:13;;;;;;;12.13;8.27;;;;;10.80;101879.00;;;;9929614;29;20225;-89
2024/02/18 18:38:14;;;;;;;12.23;9.93;;;;;10.80;101872.00;;;;9934582;29;20866;-87
2024/02/18 18:43:15;;;;;;;11.33;9.53;;;;;10.80;101870.00;;;;9919653;29;20242;-86
2024/02/18 18:48:17;;;;;;;12.13;7.17;;;;;10.80;101898.00;;;;9944838;29;20228;-86
2024/02/18 18:53:19;;;;;;;7.57;4.37;;;;;10.60;101893.00;;;;9948819;29;20274;-84
2024/02/18 18:58:20;;;;;;;8.40;5.67;;;;;10.50;101905.00;;;;10064167;24;20266;-85
2024/02/18 19:03:21;;;;;;;10.23;7.37;;;;;10.50;101902.00;;;;10002411;29;20257;-84
2024/02/18 19:08:23;;;;;;;13.70;9.97;;;;;10.60;101898.00;;;;10442401;24;20260;-85
2024/02/18 19:14:11;;;;;;;19.90;11.80;;;;;10.70;101889.00;;;;10540665;24;20257;31
2024/02/18 19:19:15;;;;;;;15.93;8.43;;;;;10.80;101915.00;;;;9893326;29;20297;-84
2024/02/18 19:24:16;;;;;;;7.67;6.43;;;;;10.80;101918.00;;;;9873433;29;20223;-87
2024/02/18 19:29:19;;;;;;;14.43;10.00;;;;;10.90;101927.00;;;;9894677;29;20292;-89
2024/02/18 19:34:20;;;;;;;17.97;12.50;;;;;10.90;101937.00;;;;9905673;29;20230;-87
2024/02/18 19:39:22;;;;;;;18.67;11.37;;;;;10.90;101932.00;;;;9877356;29;20258;-88
2024/02/18 19:44:23;;;;;;;16.37;11.23;;;;;10.90;101935.00;;;;9862610;29;20227;-87
2024/02/18 19:49:24;;;;;;;17.93;12.37;;;;;10.90;101932.00;;;;9888280;29;20254;-83
2024/02/18 19:54:28;;;;;;;19.53;11.00;;;;;10.90;101951.00;;;;9935041;29;20216;-80
2024/02/18 19:59:29;;;;;;;17.57;10.37;;;;;10.80;101960.00;;;;9942594;29;20876;-83
2024/02/18 20:04:30;;;;;;;16.67;9.10;;;;;10.80;101957.00;;;;9889682;29;20952;-84
2024/02/18 20:09:32;;;;;;;11.03;8.97;;;;;10.70;101963.00;;;;9874496;29;20786;-83
2024/02/18 20:14:33;;;;;;;19.33;9.27;;;;;10.70;101980.00;;;;9874939;29;20626;-83
2024/02/18 20:19:35;;;;;;;17.00;7.93;;;;;10.60;101998.00;;;;9887650;29;20236;-83
2024/02/18 20:24:51;;;;;;;14.17;4.87;;;;;10.50;101997.00;;;;9888851;29;20266;-83
2024/02/18 20:29:52;;;;;;;10.63;4.50;;;;;10.40;102024.00;;;;9884161;29;20234;-84
2024/02/18 20:34:53;;;;;;;11.43;4.10;;;;;10.30;102026.00;;;;9909070;29;20297;-84
2024/02/18 20:39:56;;;;;;;19.57;4.43;;;;;10.10;102039.00;;;;9891614;29;20261;-84
2024/02/18 20:44:57;;;;;;;17.70;4.97;;;;;10.10;102033.00;;;;9882636;29;20338;-84
2024/02/18 20:49:58;;;;;;;12.60;4.73;;;;;9.90;102034.00;;;;9859129;29;20905;-83
2024/02/18 20:55:02;;;;;;;13.27;3.73;;;;;9.80;102039.00;;;;9884705;29;20908;-89
2024/02/18 21:00:06;;;;;;;18.07;3.73;;;;;9.70;102047.00;;;;9940661;29;20299;-85
2024/02/18 21:05:07;;;;;;;10.83;3.10;;;;;9.60;102051.00;;;;9988973;29;20235;-87
2024/02/18 21:10:18;;;;;;;19.43;4.63;;;;;9.50;102059.00;;;;9938568;29;20865;-88
2024/02/18 21:15:20;;;;;;;21.27;5.73;;;;;9.30;102060.00;;;;9908342;29;20305;-88
2024/02/18 21:20:21;;;;;;;20.37;5.37;;;;;9.30;102080.00;;;;9930782;29;20241;-88
2024/02/18 21:25:22;;;;;;;17.77;5.90;;;;;9.20;102089.00;;;;9909929;29;20237;-87
2024/02/18 21:30:23;;;;;;;14.53;4.90;;;;;9.20;102108.00;;;;9930742;29;20230;-86
2024/02/18 21:35:24;;;;;;;20.57;6.00;;;;;9.20;102101.00;;;;9907576;29;20745;-88
2024/02/18 21:40:26;;;;;;;20.97;6.07;;;;;9.30;102111.00;;;;9902509;29;20651;-89
2024/02/18 21:45:27;;;;;;;19.37;5.47;;;;;9.30;102120.00;;;;9940655;29;20255;-88
2024/02/18 21:50:28;;;;;;;23.67;4.70;;;;;9.20;102131.00;;;;9905891;29;20310;-87
2024/02/18 21:55:29;;;;;;;23.60;5.37;;;;;9.20;102129.00;;;;9921017;29;20325;-90
2024/02/18 22:00:32;;;;;;;19.80;4.73;;;;;9.10;102143.00;;;;9915870;29;20233;-89
2024/02/18 22:05:33;;;;;;;16.43;5.10;;;;;9.10;102148.00;;;;9905947;29;20227;-84
2024/02/18 22:10:35;;;;;;;16.77;4.83;;;;;9.00;102143.00;;;;9915235;29;21056;-84
2024/02/18 22:15:36;;;;;;;15.70;4.13;;;;;9.00;102144.00;;;;9914927;29;20235;-84
2024/02/18 22:20:38;;;;;;;22.17;5.93;;;;;8.90;102147.00;;;;9909143;29;20255;-84
2024/02/18 22:25:39;;;;;;;22.40;5.47;;;;;8.80;102148.00;;;;9955545;29;20249;-82
2024/02/18 22:30:40;;;;;;;13.53;4.60;;;;;8.70;102154.00;;;;9997854;29;20218;-84
2024/02/18 22:35:41;;;;;;;18.80;5.30;;;;;8.70;102161.00;;;;9927293;29;20234;-85
2024/02/18 22:40:43;;;;;;;15.30;5.47;;;;;8.60;102166.00;;;;9915586;29;20302;-83
2024/02/18 22:45:44;;;;;;;22.60;5.23;;;;;8.60;102185.00;;;;9912644;29;20563;-84
2024/02/18 22:50:45;;;;;;;26.90;5.80;;;;;8.70;102188.00;;;;9912833;29;20226;-84
2024/02/18 22:55:46;;;;;;;21.07;5.57;;;;;8.60;102189.00;;;;9941970;29;20309;-83
2024/02/18 23:00:47;;;;;;;22.63;5.43;;;;;8.70;102200.00;;;;9925508;29;20239;-83
2024/02/18 23:05:49;;;;;;;21.53;5.80;;;;;8.70;102212.00;;;;9914765;29;20747;-83
2024/02/18 23:10:51;;;;;;;15.77;4.87;;;;;8.80;102223.00;;;;9914286;29;20325;-83
2024/02/18 23:15:52;;;;;;;13.07;4.83;;;;;8.80;102209.00;;;;9899453;29;20246;-81
2024/02/18 23:20:53;;;;;;;22.07;5.83;;;;;9.00;102234.00;;;;9915266;29;20567;-83
2024/02/18 23:25:54;;;;;;;15.50;4.70;;;;;9.00;102239.00;;;;9900295;29;20231;-83
2024/02/18 23:30:55;;;;;;;16.83;4.77;;;;;9.10;102249.00;;;;9937951;29;20843;-83
2024/02/18 23:35:56;;;;;;;18.93;4.83;;;;;9.10;102246.00;;;;9918326;29;20271;-82
2024/02/18 23:41:01;;;;;;;19.20;5.13;;;;;9.10;102246.00;;;;9895950;29;20317;-82
2024/02/18 23:46:07;;;;;;;18.73;5.00;;;;;9.20;102253.00;;;;9886517;29;20321;-82
2024/02/18 23:51:08;;;;;;;20.83;5.67;;;;;9.30;102270.00;;;;9943021;29;20233;-83
2024/02/18 23:56:09;;;;;;;14.00;5.23;;;;;9.20;102265.00;;;;9933364;29;20320;-83
